Mineral Faith — VRKS4 — position and weather

sailwx.info

Track history (hours):
 
Tides and Currents Weather Stations Pressure Air Temp Water Temp Dewpoint Dewpoint Depression Visibility Wind Speed Wind Dir Waves Ship Positions

Mineral Faith

Last reported at 2016-Aug-28 19:04 UTC. Time now 2016-Aug-28 20:42 UTC.
Position N 01°15' E 104°11'.

Length 292 m; draft 18.2 m.

Type: Cargo ship. MMSI: 477947500.

Date/timePositionNaut miles runAvg speedWind from/ knotsBaromVisibWave heightAir tempDewpointWater temp
2016-Aug-28 19:04N 01°15' E 104°11'611.7
2016-Aug-28 18:33N 01°15' E 104°05'7 6.9
2016-Aug-28 17:34N 01°16' E 103°58'0 0.4
2016-Aug-28 16:31N 01°17' E 103°58'0 0.1
2016-Aug-28 15:31N 01°17' E 103°58'0 0.0
2016-Aug-28 14:28N 01°17' E 103°58'0 0.2
2016-Aug-28 13:31N 01°17' E 103°58'0 0.2
2016-Aug-28 12:31N 01°17' E 103°58'0 0.1
2016-Aug-28 11:31N 01°16' E 103°57'0 0.0
2016-Aug-28 10:25N 01°17' E 103°57'0 0.0
2016-Aug-28 09:31N 01°17' E 103°57'0 0.0
2016-Aug-28 08:25N 01°17' E 103°57'0 0.0
2016-Aug-28 07:31N 01°17' E 103°57'0 0.0
2016-Aug-28 06:31N 01°17' E 103°57'0 0.0
2016-Aug-28 05:28N 01°17' E 103°57'0 0.0
2016-Aug-28 04:25N 01°17' E 103°57'0 0.0
2016-Aug-28 03:07N 01°17' E 103°57'0 0.2
2016-Aug-28 02:33N 01°16' E 103°57'3 3.4
2016-Aug-28 01:33N 01°14' E 103°56'7 7.1
2016-Aug-28 00:32N 01°11' E 103°49'6 5.8
2016-Aug-27 23:32N 01°07' E 103°44'  
2016-Aug-23 18:00N 00°24' E 089°30'   100 / 261019.0 5.4 3.028.025.028.0
Track history (hours):
 
Tides and Currents Weather Stations Pressure Air Temp Water Temp Dewpoint Dewpoint Depression Visibility Wind Speed Wind Dir Waves Ship Positions

Mineral Faith

Last reported at 2016-Aug-28 19:04 UTC. Time now 2016-Aug-28 20:42 UTC.
Position N 01°15' E 104°11'.

Length 292 m; draft 18.2 m.

Type: Cargo ship. MMSI: 477947500.

Date/timePositionNaut miles runAvg speedWind from/ knotsBaromVisibWave heightAir tempDewpointWater temp
2016-Aug-28 19:04N 01°15' E 104°11'611.7
2016-Aug-28 18:33N 01°15' E 104°05'7 6.9
2016-Aug-28 17:34N 01°16' E 103°58'0 0.4
2016-Aug-28 16:31N 01°17' E 103°58'0 0.1
2016-Aug-28 15:31N 01°17' E 103°58'0 0.0
2016-Aug-28 14:28N 01°17' E 103°58'0 0.2
2016-Aug-28 13:31N 01°17' E 103°58'0 0.2
2016-Aug-28 12:31N 01°17' E 103°58'0 0.1
2016-Aug-28 11:31N 01°16' E 103°57'0 0.0
2016-Aug-28 10:25N 01°17' E 103°57'0 0.0
2016-Aug-28 09:31N 01°17' E 103°57'0 0.0
2016-Aug-28 08:25N 01°17' E 103°57'0 0.0
2016-Aug-28 07:31N 01°17' E 103°57'0 0.0
2016-Aug-28 06:31N 01°17' E 103°57'0 0.0
2016-Aug-28 05:28N 01°17' E 103°57'0 0.0
2016-Aug-28 04:25N 01°17' E 103°57'0 0.0
2016-Aug-28 03:07N 01°17' E 103°57'0 0.2
2016-Aug-28 02:33N 01°16' E 103°57'3 3.4
2016-Aug-28 01:33N 01°14' E 103°56'7 7.1
2016-Aug-28 00:32N 01°11' E 103°49'6 5.8
2016-Aug-27 23:32N 01°07' E 103°44'  
2016-Aug-23 18:00N 00°24' E 089°30'   100 / 261019.0 5.4 3.028.025.028.0

Dump ship's entire track history